Time;durP1;ratioP1;P1;durP2;ratioP2;P2;SDS_P1;SDS_P2;PMS_P1;PMS_P2;Temp;Humidity;BMP_temperature;BMP_pressure;BME280_temperature;BME280_humidity;BME280_pressure;Samples;Min_cycle;Max_cycle;Signal;HPM_P1;HPM_P2
2022/11/14 00:00:02;;;;;;;50.63;9.63;;;;;;;;;;504577;29;1351;-59
2022/11/14 00:00:18;;;;;;;92.22;11.15;;;;;;;;;;506213;29;1496;-60
2022/11/14 00:00:33;;;;;;;100.20;11.50;;;;;;;;;;507022;29;1324;-59
2022/11/14 00:00:49;;;;;;;82.57;11.00;;;;;;;;;;506491;28;1210;-60
2022/11/14 00:01:09;;;;;;;66.70;9.88;;;;;;;;;;509404;28;1226;-59
2022/11/14 00:01:25;;;;;;;42.65;8.82;;;;;;;;;;509974;28;1062;-59
2022/11/14 00:01:40;;;;;;;58.90;9.53;;;;;;;;;;509602;28;1243;-60
2022/11/14 00:01:55;;;;;;;97.20;10.60;;;;;;;;;;508095;28;1340;-60
2022/11/14 00:02:10;;;;;;;195.80;13.85;;;;;;;;;;508411;28;1255;-60
2022/11/14 00:02:26;;;;;;;214.97;14.57;;;;;;;;;;508445;28;1049;-59
2022/11/14 00:02:41;;;;;;;176.27;13.35;;;;;;;;;;508755;28;1125;-59
2022/11/14 00:03:02;;;;;;;115.87;11.37;;;;;;;;;;508336;28;1136;-60
2022/11/14 00:03:17;;;;;;;67.68;9.60;;;;;;;;;;507882;28;1141;-60
2022/11/14 00:03:32;;;;;;;59.78;9.68;;;;;;;;;;510387;28;1217;-59
2022/11/14 00:03:49;;;;;;;33.40;9.60;;;;;;;;;;510363;28;1883;-59
2022/11/14 00:04:05;;;;;;;37.50;9.65;;;;;;;;;;511147;28;1048;-59
2022/11/14 00:04:20;;;;;;;31.13;9.10;;;;;;;;;;510553;28;1049;-60
2022/11/14 00:04:35;;;;;;;27.20;8.95;;;;;;;;;;509051;28;1192;-59
2022/11/14 00:04:51;;;;;;;38.07;9.60;;;;;;;;;;509934;28;1019;-60
2022/11/14 00:05:07;;;;;;;25.77;8.47;;;;;;;;;;510860;28;1045;-59
2022/11/14 00:05:22;;;;;;;18.33;8.05;;;;;;;;;;511216;28;1186;-59
2022/11/14 00:05:42;;;;;;;49.70;9.10;;;;;;;;;;511568;28;1179;-59
2022/11/14 00:05:58;;;;;;;55.78;9.70;;;;;;;;;;510480;28;1034;-59
2022/11/14 00:06:13;;;;;;;53.80;9.93;;;;;;;;;;511526;28;1167;-59
2022/11/14 00:06:28;;;;;;;78.68;9.93;;;;;;;;;;511980;28;1529;-59
2022/11/14 00:06:43;;;;;;;58.50;8.83;;;;;;;;;;510696;28;1460;-60
2022/11/14 00:06:59;;;;;;;28.03;8.50;;;;;;;;;;508920;28;1199;-60
2022/11/14 00:07:14;;;;;;;37.63;9.18;;;;;;;;;;511130;28;1092;-59
2022/11/14 00:07:31;;;;;;;48.13;9.37;;;;;;;;;;511308;28;1220;-59
2022/11/14 00:07:46;;;;;;;68.50;9.82;;;;;;;;;;510741;28;1562;-59
2022/11/14 00:08:02;;;;;;;105.67;10.80;;;;;;;;;;509545;28;1257;-59
2022/11/14 00:08:20;;;;;;;87.70;10.50;;;;;;;;;;512215;28;1348;-60
2022/11/14 00:08:35;;;;;;;76.05;10.10;;;;;;;;;;512817;28;1573;-59
2022/11/14 00:08:50;;;;;;;109.23;10.87;;;;;;;;;;511992;28;1127;-60
2022/11/14 00:09:06;;;;;;;122.50;10.60;;;;;;;;;;513309;28;1347;-59
2022/11/14 00:09:25;;;;;;;159.50;11.73;;;;;;;;;;510640;28;1322;-59
2022/11/14 00:09:43;;;;;;;151.57;12.02;;;;;;;;;;508812;28;1151;-60
2022/11/14 00:09:59;;;;;;;146.10;11.43;;;;;;;;;;510119;28;1071;-59
2022/11/14 00:10:15;;;;;;;116.20;10.35;;;;;;;;;;510953;28;1962;-60
2022/11/14 00:10:30;;;;;;;61.05;8.75;;;;;;;;;;509812;28;1132;-60
2022/11/14 00:10:47;;;;;;;55.40;8.47;;;;;;;;;;509535;28;1171;-60
2022/11/14 00:11:02;;;;;;;50.05;8.75;;;;;;;;;;512705;28;1260;-60
2022/11/14 00:11:17;;;;;;;49.23;8.77;;;;;;;;;;514906;28;1143;-59
2022/11/14 00:11:33;;;;;;;74.22;8.95;;;;;;;;;;513204;28;1213;-59
2022/11/14 00:11:48;;;;;;;99.13;9.87;;;;;;;;;;514373;28;1100;-60
2022/11/14 00:12:04;;;;;;;104.47;10.17;;;;;;;;;;514398;28;1143;-60
2022/11/14 00:12:19;;;;;;;95.82;9.60;;;;;;;;;;514129;28;1134;-59
2022/11/14 00:12:34;;;;;;;57.37;8.57;;;;;;;;;;512825;28;1026;-60
2022/11/14 00:12:50;;;;;;;30.13;8.27;;;;;;;;;;512255;28;1479;-60
2022/11/14 00:13:05;;;;;;;42.92;8.68;;;;;;;;;;512331;28;1422;-60
2022/11/14 00:13:20;;;;;;;52.17;8.73;;;;;;;;;;511456;28;1391;-59
2022/11/14 00:13:35;;;;;;;36.90;8.60;;;;;;;;;;510290;28;1179;-60
2022/11/14 00:13:51;;;;;;;36.35;8.82;;;;;;;;;;511954;28;1214;-59
2022/11/14 00:14:06;;;;;;;41.40;8.53;;;;;;;;;;510279;28;1073;-59
2022/11/14 00:14:21;;;;;;;35.37;8.40;;;;;;;;;;512388;28;1187;-60
2022/11/14 00:14:37;;;;;;;39.30;8.80;;;;;;;;;;508037;28;1252;-60
2022/11/14 00:14:54;;;;;;;62.53;9.93;;;;;;;;;;509906;28;1057;-60
2022/11/14 00:15:10;;;;;;;64.95;9.70;;;;;;;;;;509636;28;1195;-60
2022/11/14 00:15:25;;;;;;;47.53;8.57;;;;;;;;;;511303;28;1408;-59
2022/11/14 00:15:41;;;;;;;38.97;8.33;;;;;;;;;;510894;28;1322;-60
2022/11/14 00:15:56;;;;;;;60.60;8.55;;;;;;;;;;511165;28;1227;-60
2022/11/14 00:16:12;;;;;;;88.00;9.40;;;;;;;;;;511923;28;1352;-60
2022/11/14 00:16:27;;;;;;;52.00;8.27;;;;;;;;;;512232;28;2256;-60
2022/11/14 00:16:42;;;;;;;16.25;7.05;;;;;;;;;;511641;28;1187;-59
2022/11/14 00:16:57;;;;;;;36.87;7.67;;;;;;;;;;513570;28;1045;-59
2022/11/14 00:17:13;;;;;;;41.10;8.03;;;;;;;;;;512786;28;1151;-60
2022/11/14 00:17:28;;;;;;;45.35;8.73;;;;;;;;;;512302;28;1181;-60
2022/11/14 00:17:43;;;;;;;60.40;9.10;;;;;;;;;;511543;28;1292;-60
2022/11/14 00:17:59;;;;;;;44.63;8.53;;;;;;;;;;511228;28;1185;-59
2022/11/14 00:18:14;;;;;;;40.60;8.40;;;;;;;;;;511665;28;1377;-59
2022/11/14 00:18:30;;;;;;;42.05;8.27;;;;;;;;;;509440;28;1840;-60
2022/11/14 00:18:45;;;;;;;37.90;7.57;;;;;;;;;;509464;28;1297;-60
2022/11/14 00:19:00;;;;;;;38.63;7.30;;;;;;;;;;507338;29;1256;-59
2022/11/14 00:19:15;;;;;;;39.07;8.00;;;;;;;;;;507592;29;1169;-59
2022/11/14 00:19:31;;;;;;;44.13;8.37;;;;;;;;;;507010;29;1222;-60
2022/11/14 00:19:46;;;;;;;29.42;7.75;;;;;;;;;;506864;28;1247;-60
2022/11/14 00:20:03;;;;;;;25.03;7.90;;;;;;;;;;508544;28;1220;-60
2022/11/14 00:20:18;;;;;;;35.08;8.20;;;;;;;;;;511725;28;1285;-59
2022/11/14 00:20:34;;;;;;;42.30;8.27;;;;;;;;;;509109;29;1218;-59
2022/11/14 00:20:51;;;;;;;46.67;8.60;;;;;;;;;;509809;28;1265;-60
2022/11/14 00:21:06;;;;;;;46.15;8.07;;;;;;;;;;511408;28;1156;-59
2022/11/14 00:21:21;;;;;;;45.70;8.10;;;;;;;;;;511499;28;1324;-59
2022/11/14 00:21:36;;;;;;;46.70;8.20;;;;;;;;;;511236;28;1211;-59
2022/11/14 00:21:52;;;;;;;31.27;7.70;;;;;;;;;;510193;28;1234;-60
2022/11/14 00:22:07;;;;;;;31.05;8.02;;;;;;;;;;510955;28;1370;-59
2022/11/14 00:22:23;;;;;;;37.13;8.50;;;;;;;;;;513605;28;1131;-59
2022/11/14 00:22:38;;;;;;;34.67;8.63;;;;;;;;;;513349;28;1330;-59
2022/11/14 00:22:53;;;;;;;34.17;8.60;;;;;;;;;;512152;28;1135;-60
2022/11/14 00:23:08;;;;;;;40.13;8.70;;;;;;;;;;512128;28;1454;-60
2022/11/14 00:23:24;;;;;;;26.10;8.35;;;;;;;;;;509115;29;1182;-60
2022/11/14 00:23:39;;;;;;;14.13;7.93;;;;;;;;;;507148;29;1132;-60
2022/11/14 00:23:54;;;;;;;14.57;7.43;;;;;;;;;;508202;29;1081;-60
2022/11/14 00:24:10;;;;;;;18.38;7.18;;;;;;;;;;508546;29;1098;-60
2022/11/14 00:24:25;;;;;;;13.77;6.93;;;;;;;;;;507231;28;1244;-60
2022/11/14 00:24:40;;;;;;;9.77;6.70;;;;;;;;;;511538;28;1128;-60
2022/11/14 00:24:55;;;;;;;15.80;7.27;;;;;;;;;;513092;28;1147;-59
2022/11/14 00:25:11;;;;;;;25.95;7.93;;;;;;;;;;512435;28;1171;-59
2022/11/14 00:25:26;;;;;;;30.63;8.10;;;;;;;;;;515357;28;1060;-59
2022/11/14 00:25:45;;;;;;;27.63;7.93;;;;;;;;;;514467;28;1238;-59
2022/11/14 00:26:00;;;;;;;19.85;7.30;;;;;;;;;;514846;28;1104;-59
2022/11/14 00:26:15;;;;;;;17.43;7.10;;;;;;;;;;516049;28;1143;-59
2022/11/14 00:26:31;;;;;;;28.50;7.43;;;;;;;;;;514294;28;1146;-60
2022/11/14 00:26:46;;;;;;;28.60;7.50;;;;;;;;;;515732;28;1080;-60
2022/11/14 00:27:02;;;;;;;16.27;7.30;;;;;;;;;;513990;28;1312;-60
2022/11/14 00:27:17;;;;;;;20.23;7.50;;;;;;;;;;514998;28;1003;-60
2022/11/14 00:27:32;;;;;;;37.92;8.02;;;;;;;;;;515313;28;1081;-59
2022/11/14 00:27:48;;;;;;;34.47;7.63;;;;;;;;;;513589;28;1155;-60
2022/11/14 00:28:03;;;;;;;25.43;7.10;;;;;;;;;;513314;28;1314;-60
2022/11/14 00:28:18;;;;;;;22.33;7.03;;;;;;;;;;512653;28;1015;-59
2022/11/14 00:28:33;;;;;;;14.48;6.93;;;;;;;;;;512681;28;1123;-59
2022/11/14 00:28:49;;;;;;;17.43;6.83;;;;;;;;;;511353;28;1160;-59
2022/11/14 00:29:04;;;;;;;20.93;7.07;;;;;;;;;;510736;28;1215;-59
2022/11/14 00:29:19;;;;;;;19.98;7.07;;;;;;;;;;509672;28;1333;-60
2022/11/14 00:29:34;;;;;;;20.23;7.20;;;;;;;;;;512445;28;1517;-60
2022/11/14 00:29:50;;;;;;;29.23;7.40;;;;;;;;;;511765;28;1242;-59
2022/11/14 00:30:06;;;;;;;45.70;7.77;;;;;;;;;;510583;28;1160;-60
2022/11/14 00:30:21;;;;;;;56.50;8.10;;;;;;;;;;512038;28;1952;-59
2022/11/14 00:30:36;;;;;;;58.43;7.90;;;;;;;;;;513146;28;1112;-60
2022/11/14 00:30:52;;;;;;;53.40;7.93;;;;;;;;;;513539;28;1198;-59
2022/11/14 00:31:08;;;;;;;35.63;7.53;;;;;;;;;;513806;28;1227;-59
2022/11/14 00:31:24;;;;;;;29.58;7.18;;;;;;;;;;510902;28;1470;-59
2022/11/14 00:31:39;;;;;;;26.07;7.30;;;;;;;;;;510897;28;1163;-60
2022/11/14 00:31:54;;;;;;;29.53;7.63;;;;;;;;;;511568;28;1034;-59
2022/11/14 00:32:10;;;;;;;27.40;7.07;;;;;;;;;;510928;28;1108;-60
2022/11/14 00:32:25;;;;;;;20.70;6.80;;;;;;;;;;509279;28;1032;-60
2022/11/14 00:32:40;;;;;;;27.58;7.05;;;;;;;;;;510433;28;1557;-60
2022/11/14 00:32:55;;;;;;;23.47;6.97;;;;;;;;;;509988;28;1513;-60
2022/11/14 00:33:11;;;;;;;17.10;6.80;;;;;;;;;;513288;28;1324;-59
2022/11/14 00:33:26;;;;;;;20.35;6.90;;;;;;;;;;513665;28;1194;-59
2022/11/14 00:33:41;;;;;;;20.30;7.23;;;;;;;;;;512257;28;1369;-60
2022/11/14 00:33:56;;;;;;;18.13;7.40;;;;;;;;;;513584;28;1167;-59
2022/11/14 00:34:12;;;;;;;19.73;7.23;;;;;;;;;;513518;28;1092;-59
2022/11/14 00:34:27;;;;;;;18.65;6.93;;;;;;;;;;511957;28;1179;-60
2022/11/14 00:34:42;;;;;;;16.57;6.77;;;;;;;;;;512614;28;1175;-60
2022/11/14 00:34:58;;;;;;;17.60;7.20;;;;;;;;;;512855;28;1221;-60
2022/11/14 00:35:13;;;;;;;17.40;7.40;;;;;;;;;;511580;28;1080;-60
2022/11/14 00:35:28;;;;;;;21.47;7.43;;;;;;;;;;509673;28;1076;-60
2022/11/14 00:35:54;;;;;;;22.10;7.70;;;;;;;;;;512042;28;1088;-60
2022/11/14 00:36:09;;;;;;;13.82;7.30;;;;;;;;;;511417;28;1222;-59
2022/11/14 00:36:24;;;;;;;11.13;7.07;;;;;;;;;;512438;28;1538;-60
2022/11/14 00:36:39;;;;;;;12.40;6.70;;;;;;;;;;512817;28;1342;-60
2022/11/14 00:36:55;;;;;;;14.10;6.63;;;;;;;;;;513121;28;1211;-60
2022/11/14 00:37:10;;;;;;;18.33;6.90;;;;;;;;;;509926;28;1002;-60
2022/11/14 00:37:25;;;;;;;17.80;7.10;;;;;;;;;;509609;28;1230;-59
2022/11/14 00:37:41;;;;;;;14.82;7.00;;;;;;;;;;507550;28;1365;-59
2022/11/14 00:37:56;;;;;;;47.57;7.97;;;;;;;;;;509252;28;1133;-59
2022/11/14 00:38:11;;;;;;;49.73;7.90;;;;;;;;;;506149;29;1323;-60
2022/11/14 00:38:27;;;;;;;23.70;7.20;;;;;;;;;;506177;29;1117;-59
2022/11/14 00:38:42;;;;;;;18.70;7.17;;;;;;;;;;507949;29;1345;-59
2022/11/14 00:38:57;;;;;;;30.13;7.33;;;;;;;;;;505001;28;1321;-59
2022/11/14 00:39:13;;;;;;;45.97;7.68;;;;;;;;;;508175;28;1348;-60
2022/11/14 00:39:28;;;;;;;29.60;6.90;;;;;;;;;;510625;28;1230;-60
2022/11/14 00:39:44;;;;;;;21.97;6.80;;;;;;;;;;512134;28;1223;-60
2022/11/14 00:39:59;;;;;;;40.03;7.60;;;;;;;;;;510931;28;1136;-61
2022/11/14 00:40:15;;;;;;;40.47;7.90;;;;;;;;;;513407;28;1171;-59
2022/11/14 00:40:30;;;;;;;27.17;7.43;;;;;;;;;;511340;28;1230;-60
2022/11/14 00:40:45;;;;;;;25.03;7.40;;;;;;;;;;510861;28;1203;-59
2022/11/14 00:41:01;;;;;;;42.83;8.18;;;;;;;;;;511120;28;1219;-59
2022/11/14 00:41:16;;;;;;;46.30;7.97;;;;;;;;;;509444;28;1928;-60
2022/11/14 00:41:31;;;;;;;23.50;7.00;;;;;;;;;;508902;28;1395;-59
2022/11/14 00:41:46;;;;;;;14.88;6.63;;;;;;;;;;509841;28;1052;-59
2022/11/14 00:42:02;;;;;;;21.67;6.83;;;;;;;;;;510938;28;1167;-59
2022/11/14 00:42:17;;;;;;;24.40;6.90;;;;;;;;;;510650;28;1028;-59
2022/11/14 00:42:33;;;;;;;13.18;6.55;;;;;;;;;;509900;28;1259;-59
2022/11/14 00:42:48;;;;;;;14.93;6.78;;;;;;;;;;509424;28;1312;-59
2022/11/14 00:43:04;;;;;;;15.17;7.00;;;;;;;;;;511358;28;1464;-59
2022/11/14 00:43:19;;;;;;;20.23;6.97;;;;;;;;;;510793;28;1161;-60
2022/11/14 00:43:34;;;;;;;26.25;7.15;;;;;;;;;;510159;28;1199;-60
2022/11/14 00:43:49;;;;;;;24.87;7.40;;;;;;;;;;510666;28;1092;-60
2022/11/14 00:44:05;;;;;;;19.90;7.57;;;;;;;;;;509648;28;1171;-60
2022/11/14 00:44:20;;;;;;;15.55;7.15;;;;;;;;;;511268;28;1155;-59
2022/11/14 00:44:35;;;;;;;19.73;6.63;;;;;;;;;;512942;28;1253;-60
2022/11/14 00:44:51;;;;;;;24.93;6.83;;;;;;;;;;514207;28;1202;-60
2022/11/14 00:45:06;;;;;;;21.07;6.97;;;;;;;;;;511675;28;1536;-59
2022/11/14 00:45:21;;;;;;;20.30;6.82;;;;;;;;;;511881;28;1175;-59
2022/11/14 00:45:38;;;;;;;21.50;6.80;;;;;;;;;;513111;28;1208;-60
2022/11/14 00:45:53;;;;;;;19.02;6.80;;;;;;;;;;513473;28;1226;-59
2022/11/14 00:46:08;;;;;;;25.70;7.03;;;;;;;;;;509688;28;2514;-59
2022/11/14 00:46:23;;;;;;;26.53;7.07;;;;;;;;;;509139;28;1187;-60
2022/11/14 00:46:39;;;;;;;26.90;7.30;;;;;;;;;;507970;28;1841;-59
2022/11/14 00:46:54;;;;;;;22.17;7.18;;;;;;;;;;508989;28;1045;-60
2022/11/14 00:47:09;;;;;;;15.50;6.80;;;;;;;;;;509035;28;1257;-59
2022/11/14 00:47:24;;;;;;;18.03;7.03;;;;;;;;;;509212;28;1200;-59
2022/11/14 00:47:40;;;;;;;18.00;7.00;;;;;;;;;;508686;28;1170;-60
2022/11/14 00:47:55;;;;;;;19.70;7.20;;;;;;;;;;511769;28;1253;-59
2022/11/14 00:48:10;;;;;;;16.07;6.90;;;;;;;;;;514312;28;1056;-60
2022/11/14 00:48:25;;;;;;;12.40;6.80;;;;;;;;;;512772;28;1712;-60
2022/11/14 00:48:41;;;;;;;13.38;7.00;;;;;;;;;;513470;28;949;-60
2022/11/14 00:48:56;;;;;;;10.07;6.63;;;;;;;;;;512698;28;1146;-59
2022/11/14 00:49:12;;;;;;;7.15;6.10;;;;;;;;;;512798;28;1175;-60
2022/11/14 00:49:27;;;;;;;8.50;6.23;;;;;;;;;;512896;28;1350;-59
2022/11/14 00:49:42;;;;;;;11.50;6.30;;;;;;;;;;511823;28;1190;-60
2022/11/14 00:49:57;;;;;;;11.27;6.40;;;;;;;;;;507513;28;1280;-60
2022/11/14 00:50:15;;;;;;;11.15;7.03;;;;;;;;;;507352;29;1904;-60
2022/11/14 00:50:30;;;;;;;14.05;6.97;;;;;;;;;;508963;29;1356;-60
2022/11/14 00:50:45;;;;;;;11.77;6.90;;;;;;;;;;506116;29;1309;-60
2022/11/14 00:51:00;;;;;;;8.98;6.72;;;;;;;;;;507076;29;1191;-60
2022/11/14 00:51:16;;;;;;;7.83;6.47;;;;;;;;;;507545;29;1115;-60
2022/11/14 00:51:31;;;;;;;8.13;6.43;;;;;;;;;;507541;29;1176;-60
2022/11/14 00:51:46;;;;;;;8.27;6.10;;;;;;;;;;507326;29;1235;-60
2022/11/14 00:52:01;;;;;;;8.40;6.18;;;;;;;;;;505600;29;1715;-60
2022/11/14 00:52:17;;;;;;;8.23;6.53;;;;;;;;;;504687;29;1057;-60
2022/11/14 00:52:32;;;;;;;7.73;6.67;;;;;;;;;;507469;29;1136;-60
2022/11/14 00:52:47;;;;;;;9.13;6.80;;;;;;;;;;508693;29;1203;-59
2022/11/14 00:53:03;;;;;;;11.07;6.57;;;;;;;;;;506195;29;1293;-60
2022/11/14 00:53:18;;;;;;;16.30;6.57;;;;;;;;;;507298;29;1050;-59
2022/11/14 00:53:33;;;;;;;21.75;6.93;;;;;;;;;;508202;29;1183;-60
2022/11/14 00:53:49;;;;;;;31.17;7.63;;;;;;;;;;509442;28;1148;-59
2022/11/14 00:54:04;;;;;;;34.33;7.60;;;;;;;;;;511263;28;1226;-59
2022/11/14 00:54:19;;;;;;;23.60;7.00;;;;;;;;;;510646;28;1230;-60
2022/11/14 00:54:35;;;;;;;22.83;7.00;;;;;;;;;;509749;28;1148;-60
2022/11/14 00:54:50;;;;;;;20.73;6.97;;;;;;;;;;511515;28;1064;-59
2022/11/14 00:55:06;;;;;;;21.45;7.10;;;;;;;;;;510974;28;1065;-59
2022/11/14 00:55:21;;;;;;;19.95;7.18;;;;;;;;;;507687;28;1290;-60
2022/11/14 00:55:36;;;;;;;13.87;6.80;;;;;;;;;;510873;28;1300;-60
2022/11/14 00:55:52;;;;;;;13.50;6.80;;;;;;;;;;507931;28;1196;-59
2022/11/14 00:56:07;;;;;;;12.63;6.93;;;;;;;;;;509085;28;1041;-60
2022/11/14 00:56:22;;;;;;;13.57;7.10;;;;;;;;;;509040;28;1124;-59
2022/11/14 00:56:37;;;;;;;14.43;7.00;;;;;;;;;;507562;28;1742;-59
2022/11/14 00:56:53;;;;;;;13.97;6.90;;;;;;;;;;506281;28;1282;-59
2022/11/14 00:57:08;;;;;;;17.98;7.10;;;;;;;;;;508883;28;1111;-59
2022/11/14 00:57:23;;;;;;;19.53;7.30;;;;;;;;;;509183;28;1516;-59
2022/11/14 00:57:38;;;;;;;18.20;7.20;;;;;;;;;;507438;29;1172;-60
2022/11/14 00:57:54;;;;;;;15.13;7.03;;;;;;;;;;510317;28;1194;-60
2022/11/14 00:58:09;;;;;;;16.73;7.25;;;;;;;;;;510130;28;1171;-60
2022/11/14 00:58:24;;;;;;;36.47;7.67;;;;;;;;;;510770;28;1214;-60
2022/11/14 00:58:39;;;;;;;30.80;7.37;;;;;;;;;;511552;28;1219;-60
2022/11/14 00:58:55;;;;;;;15.10;6.80;;;;;;;;;;512737;28;1183;-60
2022/11/14 00:59:10;;;;;;;23.95;6.88;;;;;;;;;;514539;28;1318;-59
2022/11/14 00:59:25;;;;;;;30.00;7.27;;;;;;;;;;514063;28;1123;-59
2022/11/14 00:59:41;;;;;;;33.50;7.03;;;;;;;;;;513078;28;1290;-60
2022/11/14 00:59:56;;;;;;;39.50;7.15;;;;;;;;;;513096;28;1094;-59
2022/11/14 01:00:12;;;;;;;50.57;7.57;;;;;;;;;;512305;28;1132;-60
2022/11/14 01:00:28;;;;;;;40.30;7.43;;;;;;;;;;511947;28;1485;-60
2022/11/14 01:00:43;;;;;;;26.83;7.40;;;;;;;;;;512780;28;1006;-59
2022/11/14 01:00:58;;;;;;;24.10;7.30;;;;;;;;;;511119;28;1227;-59
2022/11/14 01:01:14;;;;;;;25.00;7.25;;;;;;;;;;508664;28;1336;-60
2022/11/14 01:01:29;;;;;;;32.93;7.67;;;;;;;;;;508367;28;1881;-59
2022/11/14 01:01:44;;;;;;;40.70;7.83;;;;;;;;;;509487;28;1181;-59
2022/11/14 01:02:00;;;;;;;33.30;7.57;;;;;;;;;;507591;29;1207;-59
2022/11/14 01:02:15;;;;;;;28.83;7.50;;;;;;;;;;506634;29;1152;-60
2022/11/14 01:02:31;;;;;;;22.20;7.17;;;;;;;;;;505905;29;1200;-60
2022/11/14 01:02:46;;;;;;;16.20;6.75;;;;;;;;;;505426;29;1105;-60
2022/11/14 01:03:01;;;;;;;31.10;7.27;;;;;;;;;;510783;28;1229;-59
2022/11/14 01:03:16;;;;;;;53.58;7.78;;;;;;;;;;509373;28;1202;-59
2022/11/14 01:03:32;;;;;;;33.83;7.10;;;;;;;;;;508719;28;1164;-59
2022/11/14 01:03:49;;;;;;;18.10;7.07;;;;;;;;;;508212;28;1208;-60
2022/11/14 01:04:04;;;;;;;26.80;7.43;;;;;;;;;;511325;28;1132;-59
2022/11/14 01:04:19;;;;;;;22.73;7.20;;;;;;;;;;511410;28;1182;-59
2022/11/14 01:04:34;;;;;;;21.58;6.88;;;;;;;;;;510975;28;1311;-59
2022/11/14 01:04:50;;;;;;;18.00;6.87;;;;;;;;;;509513;28;1561;-60
2022/11/14 01:05:05;;;;;;;21.53;7.13;;;;;;;;;;508247;29;1179;-60
2022/11/14 01:05:22;;;;;;;24.38;7.03;;;;;;;;;;509083;29;1124;-59
2022/11/14 01:05:45;;;;;;;20.48;6.50;;;;;;;;;;507202;29;1519;-60
2022/11/14 01:06:06;;;;;;;19.48;7.10;;;;;;;;;;507291;29;1023;-59
2022/11/14 01:06:21;;;;;;;18.05;6.45;;;;;;;;;;506742;28;1220;-60
2022/11/14 01:06:36;;;;;;;47.92;7.35;;;;;;;;;;510256;28;1041;-60
2022/11/14 01:06:52;;;;;;;47.57;7.57;;;;;;;;;;509323;28;1609;-60
2022/11/14 01:07:07;;;;;;;17.87;6.60;;;;;;;;;;506947;29;1602;-60
2022/11/14 01:07:22;;;;;;;15.07;6.70;;;;;;;;;;507826;28;1213;-60
2022/11/14 01:07:37;;;;;;;17.33;6.70;;;;;;;;;;508111;29;1239;-60
2022/11/14 01:07:53;;;;;;;12.10;6.27;;;;;;;;;;509227;29;1148;-60
2022/11/14 01:08:09;;;;;;;11.90;6.63;;;;;;;;;;509117;29;1148;-59
2022/11/14 01:08:24;;;;;;;13.43;6.97;;;;;;;;;;508598;29;1172;-59
2022/11/14 01:08:39;;;;;;;13.03;6.80;;;;;;;;;;508511;28;1419;-60
2022/11/14 01:08:55;;;;;;;10.23;6.60;;;;;;;;;;511113;28;1191;-60
2022/11/14 01:09:10;;;;;;;21.77;7.18;;;;;;;;;;510510;28;1242;-59
2022/11/14 01:09:25;;;;;;;28.97;7.17;;;;;;;;;;511255;28;1171;-59
2022/11/14 01:09:41;;;;;;;29.60;6.90;;;;;;;;;;512579;28;1199;-60
2022/11/14 01:09:56;;;;;;;27.23;7.10;;;;;;;;;;511211;28;1190;-60
2022/11/14 01:10:11;;;;;;;17.77;6.80;;;;;;;;;;511820;28;1590;-59
2022/11/14 01:10:27;;;;;;;17.33;6.83;;;;;;;;;;512505;28;1167;-60
2022/11/14 01:10:46;;;;;;;17.00;7.05;;;;;;;;;;511194;28;1237;-59
2022/11/14 01:11:11;;;;;;;15.30;6.65;;;;;;;;;;511914;28;1275;-59
2022/11/14 01:11:27;;;;;;;15.68;7.10;;;;;;;;;;509135;29;1069;-59
2022/11/14 01:11:42;;;;;;;14.38;6.65;;;;;;;;;;509184;29;1235;-59
2022/11/14 01:11:57;;;;;;;13.50;6.50;;;;;;;;;;508695;29;1152;-60
2022/11/14 01:12:12;;;;;;;9.93;6.67;;;;;;;;;;507681;29;1195;-60
2022/11/14 01:12:28;;;;;;;12.53;6.77;;;;;;;;;;507669;29;1184;-60
2022/11/14 01:12:43;;;;;;;13.82;6.72;;;;;;;;;;511062;28;1418;-59
2022/11/14 01:12:58;;;;;;;21.03;6.97;;;;;;;;;;510831;28;1176;-60
2022/11/14 01:13:15;;;;;;;22.90;6.83;;;;;;;;;;511541;28;1139;-59
2022/11/14 01:13:31;;;;;;;13.35;6.45;;;;;;;;;;511775;28;1147;-60
2022/11/14 01:13:47;;;;;;;21.40;6.70;;;;;;;;;;513465;28;1202;-59
2022/11/14 01:14:05;;;;;;;20.13;6.75;;;;;;;;;;512396;28;2276;-59
2022/11/14 01:14:20;;;;;;;16.15;6.90;;;;;;;;;;512237;28;1167;-60
2022/11/14 01:14:36;;;;;;;25.70;7.40;;;;;;;;;;512355;28;1117;-60
2022/11/14 01:14:51;;;;;;;36.53;7.43;;;;;;;;;;513011;28;1147;-59
2022/11/14 01:15:07;;;;;;;32.60;7.30;;;;;;;;;;510881;28;1310;-60
2022/11/14 01:15:22;;;;;;;35.60;7.47;;;;;;;;;;510163;28;1247;-60
2022/11/14 01:15:42;;;;;;;37.10;7.45;;;;;;;;;;509912;28;1108;-60
2022/11/14 01:16:00;;;;;;;33.85;7.10;;;;;;;;;;510371;28;1383;-59
2022/11/14 01:16:16;;;;;;;39.22;7.30;;;;;;;;;;508839;28;1075;-60
2022/11/14 01:16:31;;;;;;;34.90;7.30;;;;;;;;;;510705;28;1159;-59
2022/11/14 01:16:46;;;;;;;36.43;7.07;;;;;;;;;;510965;28;1184;-59
2022/11/14 01:17:01;;;;;;;40.75;7.32;;;;;;;;;;512249;28;1168;-59
2022/11/14 01:17:17;;;;;;;86.17;9.00;;;;;;;;;;510900;28;1273;-59
2022/11/14 01:17:32;;;;;;;103.70;9.17;;;;;;;;;;509172;28;1189;-60
2022/11/14 01:17:47;;;;;;;76.70;8.57;;;;;;;;;;509254;28;1077;-60
2022/11/14 01:18:03;;;;;;;60.53;8.48;;;;;;;;;;510961;28;1183;-59
2022/11/14 01:18:20;;;;;;;51.43;8.23;;;;;;;;;;510770;28;1152;-59
2022/11/14 01:18:36;;;;;;;59.67;8.10;;;;;;;;;;509799;28;1130;-60
2022/11/14 01:18:52;;;;;;;50.15;7.97;;;;;;;;;;510804;28;1306;-60
2022/11/14 01:19:07;;;;;;;30.60;7.50;;;;;;;;;;510614;28;1152;-60
2022/11/14 01:19:23;;;;;;;21.27;7.22;;;;;;;;;;510755;28;1028;-60
2022/11/14 01:19:38;;;;;;;24.27;7.00;;;;;;;;;;510881;28;965;-59
2022/11/14 01:19:53;;;;;;;26.55;7.07;;;;;;;;;;510631;28;1383;-59
2022/11/14 01:20:09;;;;;;;29.90;7.87;;;;;;;;;;509697;28;1116;-60
2022/11/14 01:20:24;;;;;;;29.17;8.00;;;;;;;;;;510639;28;1152;-60
2022/11/14 01:20:41;;;;;;;35.53;7.90;;;;;;;;;;506345;28;1567;-60
2022/11/14 01:20:56;;;;;;;53.58;8.30;;;;;;;;;;509943;28;1595;-60
2022/11/14 01:21:13;;;;;;;45.83;7.97;;;;;;;;;;511444;28;1146;-59
2022/11/14 01:21:28;;;;;;;23.88;6.80;;;;;;;;;;511459;28;1139;-59
2022/11/14 01:21:43;;;;;;;20.48;6.65;;;;;;;;;;509183;28;1251;-59
2022/11/14 01:21:59;;;;;;;35.20;7.17;;;;;;;;;;509373;29;1213;-60
2022/11/14 01:22:14;;;;;;;23.07;6.77;;;;;;;;;;509074;29;1096;-59
2022/11/14 01:22:29;;;;;;;15.55;6.47;;;;;;;;;;509120;29;1084;-60
2022/11/14 01:22:45;;;;;;;35.30;7.10;;;;;;;;;;511930;28;1367;-59
2022/11/14 01:23:00;;;;;;;54.88;7.55;;;;;;;;;;509667;28;1288;-60
2022/11/14 01:23:16;;;;;;;40.90;7.13;;;;;;;;;;511525;28;1315;-59
2022/11/14 01:23:31;;;;;;;22.05;6.50;;;;;;;;;;511532;28;1115;-59
2022/11/14 01:23:47;;;;;;;31.47;6.97;;;;;;;;;;511696;28;1148;-59
2022/11/14 01:24:02;;;;;;;43.60;7.35;;;;;;;;;;511304;28;1459;-60
2022/11/14 01:24:17;;;;;;;36.70;6.67;;;;;;;;;;513121;28;1157;-59
2022/11/14 01:24:33;;;;;;;23.73;6.47;;;;;;;;;;513061;28;1152;-60
2022/11/14 01:24:48;;;;;;;15.80;6.38;;;;;;;;;;511253;28;1151;-60
2022/11/14 01:25:04;;;;;;;15.93;6.33;;;;;;;;;;511183;28;1209;-60
2022/11/14 01:25:19;;;;;;;19.20;6.38;;;;;;;;;;509539;28;1332;-60
2022/11/14 01:25:36;;;;;;;20.67;6.47;;;;;;;;;;510873;28;1096;-59
2022/11/14 01:25:51;;;;;;;22.67;6.63;;;;;;;;;;509615;28;1096;-60
2022/11/14 01:26:12;;;;;;;37.53;6.70;;;;;;;;;;511387;28;1108;-59
2022/11/14 01:26:27;;;;;;;42.20;6.97;;;;;;;;;;510359;28;1088;-59
2022/11/14 01:26:42;;;;;;;35.80;6.90;;;;;;;;;;510154;28;1076;-59
2022/11/14 01:26:58;;;;;;;26.40;6.80;;;;;;;;;;508908;28;1172;-59
2022/11/14 01:27:13;;;;;;;33.93;7.50;;;;;;;;;;508152;28;1154;-60
2022/11/14 01:27:32;;;;;;;46.40;7.67;;;;;;;;;;510848;28;1175;-60
2022/11/14 01:27:47;;;;;;;33.33;7.10;;;;;;;;;;510827;28;1272;-60
2022/11/14 01:28:11;;;;;;;16.40;6.43;;;;;;;;;;508880;28;1601;-60
2022/11/14 01:28:26;;;;;;;12.07;6.80;;;;;;;;;;510076;28;1494;-59
2022/11/14 01:28:41;;;;;;;17.10;6.93;;;;;;;;;;507767;28;1346;-59
2022/11/14 01:28:56;;;;;;;23.02;7.07;;;;;;;;;;511142;28;1195;-60
2022/11/14 01:29:12;;;;;;;21.33;7.07;;;;;;;;;;509308;28;1313;-60
2022/11/14 01:29:27;;;;;;;19.20;6.70;;;;;;;;;;509193;28;1140;-59
2022/11/14 01:29:42;;;;;;;21.87;6.17;;;;;;;;;;508733;28;1159;-59
2022/11/14 01:29:58;;;;;;;27.80;6.43;;;;;;;;;;507600;28;1000;-60
2022/11/14 01:30:13;;;;;;;57.57;7.63;;;;;;;;;;509388;28;1986;-60
2022/11/14 01:30:28;;;;;;;73.88;7.97;;;;;;;;;;509283;28;1837;-60
2022/11/14 01:30:44;;;;;;;58.03;7.70;;;;;;;;;;509459;28;1322;-59
2022/11/14 01:31:26;;;;;;;53.50;7.80;;;;;;;;;;507651;28;1136;-59
2022/11/14 01:31:41;;;;;;;16.58;6.75;;;;;;;;;;507435;28;1516;-59
2022/11/14 01:31:56;;;;;;;10.60;6.40;;;;;;;;;;509377;28;1409;-59
2022/11/14 01:32:11;;;;;;;9.63;6.27;;;;;;;;;;509368;28;1152;-59
2022/11/14 01:32:27;;;;;;;14.10;6.40;;;;;;;;;;510203;28;1215;-59
2022/11/14 01:32:42;;;;;;;26.88;6.85;;;;;;;;;;509248;28;1362;-59
2022/11/14 01:32:58;;;;;;;21.87;6.80;;;;;;;;;;510883;28;1065;-59
2022/11/14 01:33:13;;;;;;;13.27;6.53;;;;;;;;;;511253;28;1072;-59
2022/11/14 01:33:28;;;;;;;23.15;6.95;;;;;;;;;;511579;28;1152;-59
2022/11/14 01:33:46;;;;;;;57.23;8.33;;;;;;;;;;509714;28;1219;-59
2022/11/14 01:34:02;;;;;;;50.53;8.35;;;;;;;;;;511098;28;1212;-59
2022/11/14 01:34:17;;;;;;;26.17;7.47;;;;;;;;;;511526;28;1112;-60
2022/11/14 01:34:32;;;;;;;21.23;6.80;;;;;;;;;;511477;28;1107;-59
2022/11/14 01:34:47;;;;;;;14.37;6.10;;;;;;;;;;509481;28;1131;-60
2022/11/14 01:35:03;;;;;;;10.67;6.60;;;;;;;;;;509599;28;1192;-60
2022/11/14 01:35:18;;;;;;;20.90;7.00;;;;;;;;;;511260;28;1143;-60
2022/11/14 01:35:36;;;;;;;32.17;7.00;;;;;;;;;;511030;28;1470;-60